createdAt,value
2022-10-25T00:16:34.957Z,13.20
2022-10-25T00:20:02.940Z,13.20
2022-10-25T00:22:46.876Z,13.20
2022-10-25T00:25:58.882Z,13.20
2022-10-25T00:28:29.555Z,13.10
2022-10-25T00:34:57.455Z,13.10
2022-10-25T00:41:10.820Z,13.10
2022-10-25T00:44:00.554Z,13.10
2022-10-25T00:54:08.724Z,12.90
2022-10-25T00:57:14.077Z,12.90
2022-10-25T01:19:29.274Z,12.80
2022-10-25T03:19:57.347Z,12.10
2022-10-25T03:22:36.537Z,12.10
2022-10-25T03:25:17.711Z,12.00
2022-10-25T03:53:36.106Z,11.70
2022-10-25T03:56:02.585Z,11.70
2022-10-25T03:58:29.106Z,11.70
2022-10-25T04:00:55.625Z,11.70
2022-10-25T04:03:22.249Z,11.60
2022-10-25T04:05:48.749Z,11.60
2022-10-25T04:08:15.273Z,11.50
2022-10-25T04:10:41.830Z,11.50
2022-10-25T04:13:08.357Z,11.50
2022-10-25T04:15:34.883Z,11.40
2022-10-25T04:18:01.404Z,11.40
2022-10-25T04:20:28.066Z,11.30
2022-10-25T04:22:57.772Z,11.20
2022-10-25T04:25:25.026Z,11.20
2022-10-25T04:27:51.494Z,11.10
2022-10-25T04:30:17.953Z,11.10
2022-10-25T04:32:44.516Z,11.10
2022-10-25T04:35:12.243Z,11.00
2022-10-25T04:37:38.788Z,11.10
2022-10-25T04:40:05.836Z,11.10
2022-10-25T04:42:34.123Z,11.10
2022-10-25T04:45:01.088Z,11.10
2022-10-25T04:47:30.348Z,11.00
2022-10-25T04:49:56.854Z,10.90
2022-10-25T04:52:23.353Z,10.90
2022-10-25T04:54:49.846Z,10.90
2022-10-25T04:57:16.382Z,10.90
2022-10-25T04:59:42.897Z,10.80
2022-10-25T05:02:09.423Z,10.90
2022-10-25T05:04:35.933Z,10.80
2022-10-25T05:07:02.437Z,10.80
2022-10-25T05:09:28.932Z,10.70
2022-10-25T05:11:55.403Z,10.70
2022-10-25T05:14:21.871Z,10.70
2022-10-25T05:16:48.493Z,10.70
2022-10-25T05:19:14.928Z,10.70
2022-10-25T05:21:41.409Z,10.70
2022-10-25T05:24:07.921Z,10.70
2022-10-25T05:26:35.507Z,10.70
2022-10-25T05:29:03.664Z,10.70
2022-10-25T05:31:32.051Z,10.70
2022-10-25T05:33:59.781Z,10.80
2022-10-25T05:36:29.254Z,10.80
2022-10-25T05:38:55.875Z,10.80
2022-10-25T05:41:22.559Z,10.90
2022-10-25T05:43:48.997Z,11.00
2022-10-25T05:46:17.020Z,11.00
2022-10-25T05:48:48.426Z,11.00
2022-10-25T05:51:32.299Z,11.10
2022-10-25T05:54:01.682Z,11.10
2022-10-25T05:56:28.743Z,11.10
2022-10-25T05:58:57.042Z,11.10
2022-10-25T06:01:24.323Z,11.10
2022-10-25T06:03:51.619Z,11.10
2022-10-25T06:06:18.525Z,11.00
2022-10-25T06:08:45.591Z,11.00
2022-10-25T06:11:16.506Z,10.90
2022-10-25T06:13:43.412Z,10.90
2022-10-25T06:16:12.036Z,10.90
2022-10-25T06:18:38.764Z,11.00
2022-10-25T06:21:06.925Z,11.00
2022-10-25T06:23:36.581Z,11.00
2022-10-25T06:26:05.060Z,11.00
2022-10-25T06:28:31.571Z,11.00
2022-10-25T06:31:01.874Z,11.00
2022-10-25T06:33:28.515Z,11.00
2022-10-25T06:35:56.016Z,11.00
2022-10-25T06:38:22.552Z,11.00
2022-10-25T06:40:49.035Z,11.10
2022-10-25T06:43:15.760Z,11.10
2022-10-25T06:45:49.728Z,11.10
2022-10-25T06:54:14.468Z,11.20
2022-10-25T06:56:50.625Z,11.30
2022-10-25T06:59:23.517Z,11.40
2022-10-25T07:02:04.301Z,11.50
2022-10-25T07:04:53.336Z,11.70
2022-10-25T07:07:39.023Z,11.90
2022-10-25T07:10:18.774Z,12.30
2022-10-25T07:13:10.917Z,13.10
2022-10-25T07:15:53.587Z,14.00
2022-10-25T07:18:29.551Z,15.10
2022-10-25T07:21:02.578Z,17.30
2022-10-25T07:23:47.170Z,20.30
2022-10-25T07:26:33.712Z,22.00
2022-10-25T07:29:09.602Z,22.50
2022-10-25T07:31:51.455Z,22.40
2022-10-25T07:34:29.865Z,23.20
2022-10-25T07:37:19.249Z,23.40
2022-10-25T07:39:59.554Z,23.20
2022-10-25T07:42:42.774Z,22.20
2022-10-25T07:45:22.291Z,21.10
2022-10-25T07:51:00.968Z,19.30
2022-10-25T07:53:57.618Z,18.50
2022-10-25T07:57:11.248Z,17.90
2022-10-25T08:03:18.703Z,16.60
2022-10-25T08:13:20.328Z,16.10
2022-10-25T08:15:56.490Z,15.70
2022-10-25T08:18:23.477Z,15.50
2022-10-25T08:21:01.749Z,15.40
2022-10-25T08:23:31.118Z,15.30
2022-10-25T08:25:57.662Z,15.20
2022-10-25T08:28:24.206Z,14.90
2022-10-25T08:30:52.438Z,14.90
2022-10-25T08:33:18.991Z,14.90
2022-10-25T08:35:45.518Z,14.90
2022-10-25T08:38:12.115Z,15.00
2022-10-25T08:40:44.777Z,15.00
2022-10-25T08:43:29.835Z,15.00
2022-10-25T08:45:58.205Z,15.10
2022-10-25T08:48:28.324Z,15.10
2022-10-25T08:50:58.556Z,15.10
2022-10-25T08:53:31.979Z,14.90
2022-10-25T08:56:15.683Z,15.00
2022-10-25T08:58:54.419Z,15.00
2022-10-25T09:01:24.053Z,15.10
2022-10-25T09:03:50.883Z,15.00
2022-10-25T09:06:23.587Z,15.00
2022-10-25T09:08:53.124Z,15.00
2022-10-25T09:11:19.500Z,15.10
2022-10-25T09:13:50.877Z,15.20
2022-10-25T09:16:27.432Z,15.20
2022-10-25T09:18:57.114Z,15.20
2022-10-25T09:21:46.617Z,15.30
2022-10-25T09:24:22.900Z,15.30
2022-10-25T09:26:49.387Z,15.50
2022-10-25T09:29:20.248Z,15.50
2022-10-25T09:31:50.257Z,15.50
2022-10-25T09:34:18.879Z,15.40
2022-10-25T09:36:50.440Z,15.40
2022-10-25T09:39:20.128Z,15.50
2022-10-25T09:41:49.651Z,15.60
2022-10-25T09:44:35.056Z,15.70
2022-10-25T09:47:08.708Z,15.70
2022-10-25T09:49:39.420Z,15.90
2022-10-25T09:52:17.060Z,16.10
2022-10-25T09:54:50.834Z,16.30
2022-10-25T09:57:17.398Z,16.60
2022-10-25T09:59:46.933Z,16.70
2022-10-25T10:02:15.459Z,16.70
2022-10-25T10:04:42.068Z,16.70
2022-10-25T10:07:21.288Z,16.60
2022-10-25T10:09:56.699Z,16.60
2022-10-25T10:12:31.887Z,16.50
2022-10-25T10:15:04.820Z,16.50
2022-10-25T10:17:32.477Z,16.40
2022-10-25T10:20:15.166Z,16.50
2022-10-25T10:23:01.793Z,16.60
2022-10-25T10:25:30.788Z,16.60
2022-10-25T10:27:57.931Z,16.70
2022-10-25T10:30:28.845Z,16.80
2022-10-25T10:32:57.693Z,17.00
2022-10-25T10:35:26.080Z,17.20
2022-10-25T10:37:52.553Z,17.30
2022-10-25T10:40:19.038Z,17.40
2022-10-25T10:42:45.843Z,17.70
2022-10-25T10:45:15.522Z,18.40
2022-10-25T10:47:43.557Z,19.10
2022-10-25T10:50:22.828Z,19.30
2022-10-25T10:52:59.980Z,19.30
2022-10-25T10:55:36.221Z,19.10
2022-10-25T10:58:15.094Z,18.90
2022-10-25T11:00:48.930Z,19.00
2022-10-25T11:03:34.129Z,19.10
2022-10-25T11:06:00.952Z,18.90
2022-10-25T11:08:27.475Z,18.90
2022-10-25T11:11:11.581Z,18.80
2022-10-25T11:13:38.290Z,19.00
2022-10-25T11:16:04.765Z,19.10
2022-10-25T11:18:36.973Z,19.10
2022-10-25T11:21:09.183Z,19.00
2022-10-25T11:23:41.728Z,19.10
2022-10-25T11:26:17.916Z,19.10
2022-10-25T11:29:03.844Z,19.20
2022-10-25T11:31:48.082Z,19.70
2022-10-25T11:34:17.619Z,19.90
2022-10-25T11:36:50.127Z,20.10
2022-10-25T11:39:25.710Z,19.90
2022-10-25T11:41:55.706Z,19.70
2022-10-25T11:44:22.265Z,19.90
2022-10-25T11:46:53.161Z,19.80
2022-10-25T11:49:25.682Z,19.60
2022-10-25T11:52:12.464Z,19.60
2022-10-25T11:54:59.296Z,19.60
2022-10-25T11:57:44.161Z,19.60
2022-10-25T12:00:21.546Z,19.50
2022-10-25T12:03:06.266Z,19.30
2022-10-25T12:05:38.972Z,19.40
2022-10-25T12:08:25.486Z,19.40
2022-10-25T12:10:57.757Z,19.40
2022-10-25T12:13:27.292Z,19.30
2022-10-25T12:15:54.977Z,19.30
2022-10-25T12:18:26.176Z,19.30
2022-10-25T12:20:53.299Z,19.50
2022-10-25T12:23:22.104Z,19.60
2022-10-25T12:26:10.326Z,19.60
2022-10-25T12:28:48.225Z,20.00
2022-10-25T12:31:14.736Z,20.10
2022-10-25T12:33:43.718Z,19.80
2022-10-25T12:36:14.321Z,19.50
2022-10-25T12:38:40.825Z,19.20
2022-10-25T12:41:27.464Z,19.10
2022-10-25T12:44:00.850Z,18.90
2022-10-25T12:46:30.134Z,18.80
2022-10-25T12:48:59.633Z,18.70
2022-10-25T12:51:26.117Z,18.70
2022-10-25T12:54:00.133Z,19.00
2022-10-25T12:56:32.528Z,19.10
2022-10-25T12:59:01.769Z,19.30
2022-10-25T13:01:28.438Z,19.30
2022-10-25T13:04:17.417Z,19.20
2022-10-25T13:06:48.231Z,19.20
2022-10-25T13:09:16.058Z,19.40
2022-10-25T13:11:46.461Z,19.40
2022-10-25T13:14:39.564Z,19.40
2022-10-25T13:17:18.270Z,19.30
2022-10-25T13:20:00.032Z,19.20
2022-10-25T13:22:35.758Z,19.10
2022-10-25T13:25:05.840Z,19.00
2022-10-25T13:27:34.478Z,18.90
2022-10-25T13:30:06.802Z,19.00
2022-10-25T13:32:33.470Z,19.00
2022-10-25T13:35:00.032Z,19.20
2022-10-25T13:37:32.798Z,19.20
2022-10-25T13:42:46.478Z,18.90
2022-10-25T13:45:21.860Z,18.80
2022-10-25T13:47:53.984Z,18.90
2022-10-25T13:50:29.084Z,18.70
2022-10-25T13:53:14.410Z,18.70
2022-10-25T13:55:45.587Z,18.80
2022-10-25T13:58:31.921Z,19.00
2022-10-25T14:01:25.507Z,19.20
2022-10-25T14:04:05.949Z,19.40
2022-10-25T14:06:34.050Z,19.40
2022-10-25T14:09:19.517Z,19.60
2022-10-25T14:11:48.520Z,19.50
2022-10-25T14:14:36.430Z,19.50
2022-10-25T14:17:08.893Z,19.40
2022-10-25T14:19:41.745Z,19.30
2022-10-25T14:22:15.968Z,19.20
2022-10-25T14:24:43.943Z,19.10
2022-10-25T14:27:26.884Z,19.10
2022-10-25T14:29:53.506Z,19.00
2022-10-25T14:32:22.445Z,18.80
2022-10-25T14:34:50.678Z,18.80
2022-10-25T14:37:17.224Z,19.00
2022-10-25T14:39:52.939Z,19.00
2022-10-25T14:42:19.465Z,19.00
2022-10-25T14:44:49.149Z,18.90
2022-10-25T14:47:31.802Z,18.90
2022-10-25T14:49:59.046Z,18.90
2022-10-25T14:52:30.183Z,18.80
2022-10-25T14:55:02.189Z,18.80
2022-10-25T14:57:28.760Z,18.60
2022-10-25T15:02:31.831Z,18.20
2022-10-25T15:04:59.780Z,18.10
2022-10-25T15:07:33.698Z,18.00
2022-10-25T15:10:01.248Z,17.90
2022-10-25T15:12:31.736Z,17.80
2022-10-25T15:14:59.710Z,17.70
2022-10-25T15:17:30.225Z,17.60
2022-10-25T15:22:27.273Z,17.30
2022-10-25T15:24:53.819Z,17.20
2022-10-25T15:27:25.337Z,17.10
2022-10-25T15:29:51.812Z,17.00
2022-10-25T15:32:26.942Z,16.90
2022-10-25T15:34:54.450Z,16.90
2022-10-25T15:37:21.890Z,16.80
2022-10-25T15:39:49.604Z,16.80
2022-10-25T15:42:16.600Z,16.80
2022-10-25T15:44:43.943Z,16.70
2022-10-25T15:47:22.606Z,16.70
2022-10-25T15:49:53.117Z,16.60
2022-10-25T15:52:19.648Z,16.60
2022-10-25T15:54:46.224Z,16.60
2022-10-25T15:57:12.704Z,16.50
2022-10-25T15:59:39.225Z,16.50
2022-10-25T16:02:11.059Z,16.40
2022-10-25T16:04:37.631Z,16.40
2022-10-25T16:07:04.151Z,16.30
2022-10-25T16:09:30.780Z,16.30
2022-10-25T16:11:59.658Z,16.30
2022-10-25T16:14:26.855Z,16.20
2022-10-25T16:16:53.293Z,16.20
2022-10-25T16:19:21.417Z,16.20
2022-10-25T16:21:48.050Z,16.10
2022-10-25T16:24:14.550Z,16.00
2022-10-25T16:26:51.081Z,15.90
2022-10-25T16:29:19.239Z,15.80
2022-10-25T16:31:45.740Z,15.70
2022-10-25T16:34:12.361Z,15.60
2022-10-25T16:36:38.861Z,15.50
2022-10-25T16:39:06.271Z,15.50
2022-10-25T16:41:33.314Z,15.50
2022-10-25T16:43:59.799Z,15.50
2022-10-25T16:46:26.573Z,15.40
2022-10-25T16:48:54.194Z,15.40
2022-10-25T16:51:22.505Z,15.30
2022-10-25T16:53:49.019Z,15.20
2022-10-25T16:56:16.147Z,15.20
2022-10-25T16:58:43.109Z,15.20
2022-10-25T17:01:26.129Z,15.10
2022-10-25T17:03:53.148Z,15.00
2022-10-25T17:09:06.564Z,15.00
2022-10-25T17:11:33.134Z,14.90
2022-10-25T17:13:59.616Z,14.90
2022-10-25T17:16:26.125Z,14.80
2022-10-25T17:18:52.608Z,14.70
2022-10-25T17:21:19.140Z,14.70
2022-10-25T17:23:45.675Z,14.70
2022-10-25T17:26:12.433Z,14.70
2022-10-25T17:28:43.140Z,14.60
2022-10-25T17:31:11.766Z,14.60
2022-10-25T17:33:38.277Z,14.60
2022-10-25T17:36:09.121Z,14.50
2022-10-25T17:38:35.927Z,14.40
2022-10-25T17:41:02.624Z,14.40
2022-10-25T17:43:30.105Z,14.30
2022-10-25T17:46:01.413Z,14.20
2022-10-25T17:48:28.206Z,14.10
2022-10-25T17:50:59.668Z,14.00
2022-10-25T17:53:26.140Z,13.90
2022-10-25T17:55:52.575Z,13.80
2022-10-25T17:58:19.098Z,13.80
2022-10-25T18:00:45.704Z,13.70
2022-10-25T18:03:13.038Z,13.70
2022-10-25T18:05:39.819Z,13.60
2022-10-25T18:08:06.987Z,13.50
2022-10-25T18:10:34.846Z,13.50
2022-10-25T18:13:01.446Z,13.40
2022-10-25T18:15:29.138Z,13.30
2022-10-25T18:17:55.574Z,13.20
2022-10-25T18:20:25.144Z,13.10
2022-10-25T18:22:52.924Z,13.00
2022-10-25T18:25:19.918Z,12.90
2022-10-25T18:27:47.004Z,12.80
2022-10-25T18:30:13.801Z,12.70
2022-10-25T18:32:40.329Z,12.60
2022-10-25T18:35:07.009Z,12.60
2022-10-25T18:37:33.492Z,12.50
2022-10-25T18:40:00.105Z,12.50
2022-10-25T18:42:26.576Z,12.40
2022-10-25T18:44:55.240Z,12.40
2022-10-25T18:47:21.767Z,12.30
2022-10-25T18:49:48.751Z,12.20
2022-10-25T18:52:15.206Z,12.20
2022-10-25T18:54:41.743Z,12.20
2022-10-25T18:57:08.363Z,12.20
2022-10-25T18:59:34.932Z,12.10
2022-10-25T19:02:01.674Z,12.00
2022-10-25T19:04:28.329Z,12.00
2022-10-25T19:06:54.826Z,11.90
2022-10-25T19:09:21.313Z,11.90
2022-10-25T19:11:47.902Z,11.90
2022-10-25T19:14:14.379Z,11.80
2022-10-25T19:16:42.190Z,11.80
2022-10-25T19:19:08.880Z,11.70
2022-10-25T19:21:35.393Z,11.70
2022-10-25T19:24:01.886Z,11.70
2022-10-25T19:26:28.462Z,11.70
2022-10-25T19:29:01.459Z,11.60
2022-10-25T19:31:28.423Z,11.60
2022-10-25T19:33:58.256Z,11.60
2022-10-25T19:36:24.930Z,11.60
2022-10-25T19:38:51.500Z,11.50
2022-10-25T19:41:19.301Z,11.50
2022-10-25T19:43:46.094Z,11.40
2022-10-25T19:46:13.016Z,11.40
2022-10-25T19:48:39.590Z,11.40
2022-10-25T19:51:06.955Z,11.30
2022-10-25T19:53:33.620Z,11.30
2022-10-25T19:56:04.491Z,11.30
2022-10-25T19:58:30.926Z,11.20
2022-10-25T20:01:01.560Z,11.20
2022-10-25T20:03:28.224Z,11.20
2022-10-25T20:06:01.761Z,11.10
2022-10-25T20:08:28.509Z,11.10
2022-10-25T20:10:56.706Z,11.10
2022-10-25T20:13:23.237Z,11.00
2022-10-25T20:15:52.845Z,11.00
2022-10-25T20:18:19.843Z,11.00
2022-10-25T20:20:50.457Z,11.00
2022-10-25T20:23:18.315Z,11.00
2022-10-25T20:25:44.826Z,10.90
2022-10-25T20:28:11.437Z,10.90
2022-10-25T20:30:38.616Z,11.00
2022-10-25T20:33:06.437Z,10.90
2022-10-25T20:35:39.744Z,10.90
2022-10-25T20:38:06.741Z,10.90
2022-10-25T20:40:33.648Z,10.90
2022-10-25T20:43:00.400Z,10.90
2022-10-25T20:45:28.060Z,10.90
2022-10-25T20:47:55.340Z,10.80
2022-10-25T20:50:22.266Z,10.80
2022-10-25T20:53:09.245Z,10.80
2022-10-25T20:55:35.304Z,10.80
2022-10-25T20:58:01.802Z,10.80
2022-10-25T21:00:28.344Z,10.80
2022-10-25T21:02:54.838Z,10.80
2022-10-25T21:05:21.337Z,10.80
2022-10-25T21:07:48.174Z,10.80
2022-10-25T21:10:15.036Z,10.80
2022-10-25T21:12:41.506Z,10.70
2022-10-25T21:15:11.868Z,10.70
2022-10-25T21:17:38.946Z,10.70
2022-10-25T21:20:05.801Z,10.70
2022-10-25T21:22:32.326Z,10.70
2022-10-25T21:24:58.797Z,10.70
2022-10-25T21:27:25.296Z,10.70
2022-10-25T21:29:51.783Z,10.60
2022-10-25T21:32:18.300Z,10.60
2022-10-25T21:34:44.795Z,10.60
2022-10-25T21:37:11.318Z,10.60
2022-10-25T21:39:37.829Z,10.60
2022-10-25T21:42:04.437Z,10.60
2022-10-25T21:44:31.077Z,10.60
2022-10-25T21:46:57.570Z,10.70
2022-10-25T21:49:24.033Z,10.60
2022-10-25T21:51:50.552Z,10.70
2022-10-25T21:54:17.163Z,10.60
2022-10-25T21:56:43.681Z,10.70
2022-10-25T21:59:10.247Z,10.70
2022-10-25T22:01:36.856Z,10.70
2022-10-25T22:04:03.520Z,10.70
2022-10-25T22:06:30.336Z,10.70
2022-10-25T22:08:57.161Z,10.80
2022-10-25T22:11:25.331Z,10.70
2022-10-25T22:13:58.432Z,10.80
2022-10-25T22:16:25.264Z,10.70
2022-10-25T22:18:54.660Z,10.70
2022-10-25T22:21:21.609Z,10.70
2022-10-25T22:23:48.150Z,10.70
2022-10-25T22:26:16.010Z,10.80
2022-10-25T22:28:42.500Z,10.80
2022-10-25T22:31:11.077Z,10.70
2022-10-25T22:33:37.948Z,10.80
2022-10-25T22:36:06.039Z,10.80
2022-10-25T22:38:32.688Z,10.80
2022-10-25T22:41:03.812Z,10.80
2022-10-25T22:43:30.339Z,10.80
2022-10-25T22:45:59.771Z,10.80
2022-10-25T22:48:29.542Z,10.80
2022-10-25T22:50:56.117Z,10.80
2022-10-25T22:53:22.607Z,10.80
2022-10-25T22:56:04.569Z,10.80
2022-10-25T22:58:34.563Z,10.80
2022-10-25T23:03:33.518Z,10.80
2022-10-25T23:06:00.446Z,10.80
2022-10-25T23:08:27.385Z,10.80
2022-10-25T23:11:01.828Z,10.80
2022-10-25T23:13:29.052Z,10.80
2022-10-25T23:15:55.587Z,10.80
2022-10-25T23:18:22.234Z,10.80
2022-10-25T23:20:49.648Z,10.80
2022-10-25T23:23:16.196Z,10.90
2022-10-25T23:25:42.656Z,10.90
2022-10-25T23:28:09.230Z,10.90
2022-10-25T23:30:35.920Z,10.90
2022-10-25T23:33:02.510Z,11.00
2022-10-25T23:35:29.176Z,10.90
2022-10-25T23:37:55.691Z,11.00
2022-10-25T23:40:22.200Z,11.10
2022-10-25T23:42:48.747Z,11.10
2022-10-25T23:45:15.295Z,11.10
2022-10-25T23:47:42.253Z,11.10
2022-10-25T23:50:09.049Z,11.10
2022-10-25T23:52:35.572Z,11.10
2022-10-25T23:55:02.120Z,11.10
2022-10-25T23:57:28.625Z,11.10
2022-10-25T23:59:55.107Z,11.20
